sensor_id;sensor_type;location;lat;lon;timestamp;pressure;altitude;pressure_sealevel;temperature;humidity
44140;BME280;29803;51.048;4.686;2022-12-18T00:01:45;102739.78;;;-7.89;100.00
44140;BME280;29803;51.048;4.686;2022-12-18T00:04:21;102742.41;;;-7.92;100.00
44140;BME280;29803;51.048;4.686;2022-12-18T00:06:52;102740.69;;;-7.96;100.00
44140;BME280;29803;51.048;4.686;2022-12-18T00:09:22;102738.94;;;-7.99;100.00
44140;BME280;29803;51.048;4.686;2022-12-18T00:11:53;102738.94;;;-8.00;100.00
44140;BME280;29803;51.048;4.686;2022-12-18T00:14:23;102745.03;;;-8.03;100.00
44140;BME280;29803;51.048;4.686;2022-12-18T00:16:54;102738.97;;;-8.06;100.00
44140;BME280;29803;51.048;4.686;2022-12-18T00:19:24;102729.41;;;-8.12;100.00
44140;BME280;29803;51.048;4.686;2022-12-18T00:21:55;102722.47;;;-8.15;100.00
44140;BME280;29803;51.048;4.686;2022-12-18T00:24:25;102719.88;;;-8.16;100.00
44140;BME280;29803;51.048;4.686;2022-12-18T00:26:55;102709.47;;;-8.18;100.00
44140;BME280;29803;51.048;4.686;2022-12-18T00:29:26;102701.66;;;-8.18;100.00
44140;BME280;29803;51.048;4.686;2022-12-18T00:31:56;102706.84;;;-8.18;100.00
44140;BME280;29803;51.048;4.686;2022-12-18T00:34:27;102705.09;;;-8.19;100.00
44140;BME280;29803;51.048;4.686;2022-12-18T00:36:57;102702.50;;;-8.17;100.00
44140;BME280;29803;51.048;4.686;2022-12-18T00:39:28;102689.47;;;-8.19;100.00
44140;BME280;29803;51.048;4.686;2022-12-18T00:41:58;102685.13;;;-8.20;100.00
44140;BME280;29803;51.048;4.686;2022-12-18T00:44:47;102684.28;;;-8.22;100.00
44140;BME280;29803;51.048;4.686;2022-12-18T00:47:17;102682.53;;;-8.29;100.00
44140;BME280;29803;51.048;4.686;2022-12-18T00:49:48;102684.28;;;-8.36;100.00
44140;BME280;29803;51.048;4.686;2022-12-18T00:52:18;102677.38;;;-8.41;100.00
44140;BME280;29803;51.048;4.686;2022-12-18T00:54:49;102685.19;;;-8.46;100.00
44140;BME280;29803;51.048;4.686;2022-12-18T00:57:19;102685.22;;;-8.47;100.00
44140;BME280;29803;51.048;4.686;2022-12-18T00:59:49;102683.44;;;-8.50;100.00
44140;BME280;29803;51.048;4.686;2022-12-18T01:02:20;102695.63;;;-8.52;100.00
44140;BME280;29803;51.048;4.686;2022-12-18T01:04:50;102696.50;;;-8.53;100.00
44140;BME280;29803;51.048;4.686;2022-12-18T01:07:21;102695.59;;;-8.53;100.00
44140;BME280;29803;51.048;4.686;2022-12-18T01:09:51;102705.16;;;-8.52;100.00
44140;BME280;29803;51.048;4.686;2022-12-18T01:12:22;102693.88;;;-8.51;100.00
44140;BME280;29803;51.048;4.686;2022-12-18T01:14:52;102690.41;;;-8.50;100.00
44140;BME280;29803;51.048;4.686;2022-12-18T01:17:22;102692.13;;;-8.49;100.00
44140;BME280;29803;51.048;4.686;2022-12-18T01:19:53;102694.75;;;-8.52;100.00
44140;BME280;29803;51.048;4.686;2022-12-18T01:22:23;102696.47;;;-8.54;100.00
44140;BME280;29803;51.048;4.686;2022-12-18T01:24:54;102702.56;;;-8.57;100.00
44140;BME280;29803;51.048;4.686;2022-12-18T01:27:24;102698.19;;;-8.59;100.00
44140;BME280;29803;51.048;4.686;2022-12-18T01:29:55;102707.75;;;-8.60;100.00
44140;BME280;29803;51.048;4.686;2022-12-18T01:32:25;102703.41;;;-8.59;100.00
44140;BME280;29803;51.048;4.686;2022-12-18T01:34:56;102703.41;;;-8.59;100.00
44140;BME280;29803;51.048;4.686;2022-12-18T01:37:26;102696.47;;;-8.61;100.00
44140;BME280;29803;51.048;4.686;2022-12-18T01:39:57;102688.66;;;-8.61;100.00
44140;BME280;29803;51.048;4.686;2022-12-18T01:42:27;102693.00;;;-8.59;100.00
44140;BME280;29803;51.048;4.686;2022-12-18T01:47:47;102686.91;;;-8.58;100.00
44140;BME280;29803;51.048;4.686;2022-12-18T01:50:37;102689.53;;;-8.62;100.00
44140;BME280;29803;51.048;4.686;2022-12-18T01:53:21;102687.81;;;-8.63;100.00
44140;BME280;29803;51.048;4.686;2022-12-18T01:55:56;102689.53;;;-8.62;100.00
44140;BME280;29803;51.048;4.686;2022-12-18T01:59:01;102698.19;;;-8.59;100.00
44140;BME280;29803;51.048;4.686;2022-12-18T02:01:33;102704.28;;;-8.59;100.00
44140;BME280;29803;51.048;4.686;2022-12-18T02:04:24;102703.44;;;-8.58;100.00
44140;BME280;29803;51.048;4.686;2022-12-18T02:07:11;102711.22;;;-8.59;100.00
44140;BME280;29803;51.048;4.686;2022-12-18T02:09:50;102712.94;;;-8.65;100.00
44140;BME280;29803;51.048;4.686;2022-12-18T02:15:31;102710.34;;;-8.68;100.00
44140;BME280;29803;51.048;4.686;2022-12-18T02:18:28;102697.31;;;-8.69;100.00
44140;BME280;29803;51.048;4.686;2022-12-18T02:21:20;102694.72;;;-8.65;100.00
44140;BME280;29803;51.048;4.686;2022-12-18T02:24:19;102686.94;;;-8.60;100.00
44140;BME280;29803;51.048;4.686;2022-12-18T02:26:59;102679.09;;;-8.58;100.00
44140;BME280;29803;51.048;4.686;2022-12-18T02:29:39;102665.25;;;-8.56;100.00
44140;BME280;29803;51.048;4.686;2022-12-18T02:32:18;102652.22;;;-8.54;100.00
44140;BME280;29803;51.048;4.686;2022-12-18T02:34:50;102647.00;;;-8.54;100.00
44140;BME280;29803;51.048;4.686;2022-12-18T02:37:22;102646.13;;;-8.53;100.00
44140;BME280;29803;51.048;4.686;2022-12-18T02:39:56;102651.34;;;-8.53;100.00
44140;BME280;29803;51.048;4.686;2022-12-18T02:42:27;102651.34;;;-8.53;100.00
44140;BME280;29803;51.048;4.686;2022-12-18T02:44:58;102653.09;;;-8.55;100.00
44140;BME280;29803;51.048;4.686;2022-12-18T02:47:32;102649.63;;;-8.56;100.00
44140;BME280;29803;51.048;4.686;2022-12-18T02:55:52;102649.63;;;-8.54;100.00
44140;BME280;29803;51.048;4.686;2022-12-18T03:04:26;102661.75;;;-8.59;100.00
44140;BME280;29803;51.048;4.686;2022-12-18T03:07:02;102654.81;;;-8.64;100.00
44140;BME280;29803;51.048;4.686;2022-12-18T03:09:40;102658.28;;;-8.69;100.00
44140;BME280;29803;51.048;4.686;2022-12-18T03:12:24;102650.47;;;-8.69;100.00
44140;BME280;29803;51.048;4.686;2022-12-18T03:15:19;102646.16;;;-8.72;100.00
44140;BME280;29803;51.048;4.686;2022-12-18T03:18:08;102636.63;;;-8.76;100.00
44140;BME280;29803;51.048;4.686;2022-12-18T03:20:42;102642.69;;;-8.78;100.00
44140;BME280;29803;51.048;4.686;2022-12-18T03:23:18;102642.69;;;-8.83;100.00
44140;BME280;29803;51.048;4.686;2022-12-18T03:25:53;102630.56;;;-8.87;100.00
44140;BME280;29803;51.048;4.686;2022-12-18T03:28:26;102631.44;;;-8.88;100.00
44140;BME280;29803;51.048;4.686;2022-12-18T03:31:01;102620.13;;;-8.90;100.00
44140;BME280;29803;51.048;4.686;2022-12-18T03:34:01;102622.72;;;-8.90;100.00
44140;BME280;29803;51.048;4.686;2022-12-18T03:36:30;102615.81;;;-8.91;100.00
44140;BME280;29803;51.048;4.686;2022-12-18T03:39:01;102615.81;;;-8.91;100.00
44140;BME280;29803;51.048;4.686;2022-12-18T03:41:34;102614.94;;;-8.87;100.00
44140;BME280;29803;51.048;4.686;2022-12-18T03:44:20;102614.94;;;-8.82;100.00
44140;BME280;29803;51.048;4.686;2022-12-18T03:47:09;102621.00;;;-8.80;100.00
44140;BME280;29803;51.048;4.686;2022-12-18T03:49:48;102629.66;;;-8.80;100.00
44140;BME280;29803;51.048;4.686;2022-12-18T03:52:28;102627.94;;;-8.79;100.00
44140;BME280;29803;51.048;4.686;2022-12-18T03:55:01;102631.44;;;-8.77;100.00
44140;BME280;29803;51.048;4.686;2022-12-18T03:57:33;102634.00;;;-8.79;100.00
44140;BME280;29803;51.048;4.686;2022-12-18T04:00:08;102632.28;;;-8.80;100.00
44140;BME280;29803;51.048;4.686;2022-12-18T04:02:43;102634.91;;;-8.78;100.00
44140;BME280;29803;51.048;4.686;2022-12-18T04:05:15;102636.59;;;-8.79;100.00
44140;BME280;29803;51.048;4.686;2022-12-18T04:07:49;102632.28;;;-8.81;100.00
44140;BME280;29803;51.048;4.686;2022-12-18T04:10:20;102621.88;;;-8.83;100.00
44140;BME280;29803;51.048;4.686;2022-12-18T04:12:50;102621.00;;;-8.85;100.00
44140;BME280;29803;51.048;4.686;2022-12-18T04:15:21;102622.75;;;-8.87;100.00
44140;BME280;29803;51.048;4.686;2022-12-18T04:17:51;102626.22;;;-8.93;100.00
44140;BME280;29803;51.048;4.686;2022-12-18T04:20:22;102627.09;;;-8.98;100.00
44140;BME280;29803;51.048;4.686;2022-12-18T04:22:53;102619.28;;;-9.03;100.00
44140;BME280;29803;51.048;4.686;2022-12-18T04:25:23;102618.41;;;-9.06;100.00
44140;BME280;29803;51.048;4.686;2022-12-18T04:27:54;102612.31;;;-9.05;100.00
44140;BME280;29803;51.048;4.686;2022-12-18T04:30:24;102608.88;;;-9.01;100.00
44140;BME280;29803;51.048;4.686;2022-12-18T04:32:55;102611.47;;;-8.97;100.00
44140;BME280;29803;51.048;4.686;2022-12-18T04:35:25;102605.41;;;-8.97;100.00
44140;BME280;29803;51.048;4.686;2022-12-18T04:37:56;102601.06;;;-8.98;100.00
44140;BME280;29803;51.048;4.686;2022-12-18T04:40:26;102605.38;;;-8.99;100.00
44140;BME280;29803;51.048;4.686;2022-12-18T04:42:57;102603.66;;;-8.97;100.00
44140;BME280;29803;51.048;4.686;2022-12-18T04:45:27;102601.06;;;-8.91;100.00
44140;BME280;29803;51.048;4.686;2022-12-18T04:47:59;102601.06;;;-8.81;100.00
44140;BME280;29803;51.048;4.686;2022-12-18T04:50:30;102609.75;;;-8.78;100.00
44140;BME280;29803;51.048;4.686;2022-12-18T04:53:00;102620.16;;;-8.76;100.00
44140;BME280;29803;51.048;4.686;2022-12-18T04:55:31;102621.88;;;-8.77;100.00
44140;BME280;29803;51.048;4.686;2022-12-18T04:58:01;102630.56;;;-8.78;100.00
44140;BME280;29803;51.048;4.686;2022-12-18T05:00:32;102634.00;;;-8.80;100.00
44140;BME280;29803;51.048;4.686;2022-12-18T05:03:02;102632.28;;;-8.83;100.00
44140;BME280;29803;51.048;4.686;2022-12-18T05:05:34;102634.88;;;-8.88;100.00
44140;BME280;29803;51.048;4.686;2022-12-18T05:08:05;102630.53;;;-8.95;100.00
44140;BME280;29803;51.048;4.686;2022-12-18T05:10:35;102621.88;;;-8.98;100.00
44140;BME280;29803;51.048;4.686;2022-12-18T05:13:06;102635.75;;;-9.02;100.00
44140;BME280;29803;51.048;4.686;2022-12-18T05:15:36;102620.13;;;-9.05;100.00
44140;BME280;29803;51.048;4.686;2022-12-18T05:18:07;102611.44;;;-9.09;100.00
44140;BME280;29803;51.048;4.686;2022-12-18T05:20:38;102619.25;;;-9.10;100.00
44140;BME280;29803;51.048;4.686;2022-12-18T05:23:08;102615.78;;;-9.11;100.00
44140;BME280;29803;51.048;4.686;2022-12-18T05:25:39;102611.44;;;-9.10;100.00
44140;BME280;29803;51.048;4.686;2022-12-18T05:28:09;102610.59;;;-9.11;100.00
44140;BME280;29803;51.048;4.686;2022-12-18T05:30:39;102605.38;;;-9.11;100.00
44140;BME280;29803;51.048;4.686;2022-12-18T05:33:10;102604.50;;;-9.10;100.00
44140;BME280;29803;51.048;4.686;2022-12-18T05:35:40;102611.47;;;-9.07;100.00
44140;BME280;29803;51.048;4.686;2022-12-18T05:38:11;102612.34;;;-9.07;100.00
44140;BME280;29803;51.048;4.686;2022-12-18T05:40:42;102608.00;;;-9.06;100.00
44140;BME280;29803;51.048;4.686;2022-12-18T05:43:13;102615.78;;;-9.09;100.00
44140;BME280;29803;51.048;4.686;2022-12-18T05:45:44;102613.19;;;-9.08;100.00
44140;BME280;29803;51.048;4.686;2022-12-18T05:48:16;102607.13;;;-9.10;100.00
44140;BME280;29803;51.048;4.686;2022-12-18T05:50:48;102617.53;;;-9.13;100.00
44140;BME280;29803;51.048;4.686;2022-12-18T05:53:20;102613.19;;;-9.16;100.00
44140;BME280;29803;51.048;4.686;2022-12-18T05:55:51;102621.84;;;-9.20;100.00
44140;BME280;29803;51.048;4.686;2022-12-18T05:58:21;102626.19;;;-9.22;100.00
44140;BME280;29803;51.048;4.686;2022-12-18T06:00:52;102615.75;;;-9.29;100.00
44140;BME280;29803;51.048;4.686;2022-12-18T06:03:23;102613.13;;;-9.34;100.00
44140;BME280;29803;51.048;4.686;2022-12-18T06:05:54;102620.94;;;-9.37;100.00
44140;BME280;29803;51.048;4.686;2022-12-18T06:08:24;102611.41;;;-9.38;100.00
44140;BME280;29803;51.048;4.686;2022-12-18T06:10:56;102593.19;;;-9.40;100.00
44140;BME280;29803;51.048;4.686;2022-12-18T06:13:27;102599.25;;;-9.39;100.00
44140;BME280;29803;51.048;4.686;2022-12-18T06:15:57;102601.03;;;-9.38;100.00
44140;BME280;29803;51.048;4.686;2022-12-18T06:18:28;102594.97;;;-9.38;100.00
44140;BME280;29803;51.048;4.686;2022-12-18T06:20:58;102601.88;;;-9.37;100.00
44140;BME280;29803;51.048;4.686;2022-12-18T06:23:29;102607.06;;;-9.39;100.00
44140;BME280;29803;51.048;4.686;2022-12-18T06:26:04;102601.00;;;-9.41;100.00
44140;BME280;29803;51.048;4.686;2022-12-18T06:28:35;102597.53;;;-9.40;100.00
44140;BME280;29803;51.048;4.686;2022-12-18T06:31:06;102595.81;;;-9.38;100.00
44140;BME280;29803;51.048;4.686;2022-12-18T06:33:38;102590.63;;;-9.38;100.00
44140;BME280;29803;51.048;4.686;2022-12-18T06:36:11;102589.72;;;-9.40;100.00
44140;BME280;29803;51.048;4.686;2022-12-18T06:38:43;102581.94;;;-9.43;100.00
44140;BME280;29803;51.048;4.686;2022-12-18T06:41:15;102577.59;;;-9.44;100.00
44140;BME280;29803;51.048;4.686;2022-12-18T06:43:46;102586.25;;;-9.45;100.00
44140;BME280;29803;51.048;4.686;2022-12-18T06:46:17;102594.09;;;-9.44;100.00
44140;BME280;29803;51.048;4.686;2022-12-18T06:48:49;102590.59;;;-9.41;100.00
44140;BME280;29803;51.048;4.686;2022-12-18T06:51:21;102578.47;;;-9.39;100.00
44140;BME280;29803;51.048;4.686;2022-12-18T06:53:52;102569.81;;;-9.35;100.00
44140;BME280;29803;51.048;4.686;2022-12-18T06:56:22;102561.19;;;-9.32;100.00
44140;BME280;29803;51.048;4.686;2022-12-18T06:58:53;102568.09;;;-9.31;100.00
44140;BME280;29803;51.048;4.686;2022-12-18T07:01:24;102575.03;;;-9.32;100.00
44140;BME280;29803;51.048;4.686;2022-12-18T07:03:55;102575.03;;;-9.32;100.00
44140;BME280;29803;51.048;4.686;2022-12-18T07:06:26;102563.78;;;-9.32;100.00
44140;BME280;29803;51.048;4.686;2022-12-18T07:08:57;102549.03;;;-9.32;100.00
44140;BME280;29803;51.048;4.686;2022-12-18T07:11:27;102549.03;;;-9.29;100.00
44140;BME280;29803;51.048;4.686;2022-12-18T07:13:58;102546.44;;;-9.30;100.00
44140;BME280;29803;51.048;4.686;2022-12-18T07:16:28;102534.31;;;-9.31;100.00
44140;BME280;29803;51.048;4.686;2022-12-18T07:18:59;102525.66;;;-9.32;100.00
44140;BME280;29803;51.048;4.686;2022-12-18T07:21:29;102528.25;;;-9.30;100.00
44140;BME280;29803;51.048;4.686;2022-12-18T07:24:00;102528.25;;;-9.26;100.00
44140;BME280;29803;51.048;4.686;2022-12-18T07:26:30;102528.25;;;-9.20;100.00
44140;BME280;29803;51.048;4.686;2022-12-18T07:29:01;102532.56;;;-9.14;100.00
44140;BME280;29803;51.048;4.686;2022-12-18T07:31:31;102519.56;;;-9.11;100.00
44140;BME280;29803;51.048;4.686;2022-12-18T07:34:01;102520.44;;;-9.09;100.00
44140;BME280;29803;51.048;4.686;2022-12-18T07:36:32;102517.00;;;-9.08;100.00
44140;BME280;29803;51.048;4.686;2022-12-18T07:39:02;102517.84;;;-9.07;100.00
44140;BME280;29803;51.048;4.686;2022-12-18T07:41:33;102515.25;;;-9.06;100.00
44140;BME280;29803;51.048;4.686;2022-12-18T07:44:04;102524.78;;;-9.05;100.00
44140;BME280;29803;51.048;4.686;2022-12-18T07:46:34;102525.66;;;-9.06;100.00
44140;BME280;29803;51.048;4.686;2022-12-18T07:49:05;102521.31;;;-9.05;100.00
44140;BME280;29803;51.048;4.686;2022-12-18T07:51:35;102513.53;;;-9.07;100.00
44140;BME280;29803;51.048;4.686;2022-12-18T07:54:06;102510.03;;;-9.09;100.00
44140;BME280;29803;51.048;4.686;2022-12-18T07:56:36;102504.84;;;-9.07;100.00
44140;BME280;29803;51.048;4.686;2022-12-18T07:59:06;102500.50;;;-9.05;100.00
44140;BME280;29803;51.048;4.686;2022-12-18T08:01:37;102489.25;;;-9.01;100.00
44140;BME280;29803;51.048;4.686;2022-12-18T08:04:07;102484.91;;;-8.96;100.00
44140;BME280;29803;51.048;4.686;2022-12-18T08:06:38;102479.69;;;-8.92;100.00
44140;BME280;29803;51.048;4.686;2022-12-18T08:09:09;102486.63;;;-8.86;100.00
44140;BME280;29803;51.048;4.686;2022-12-18T08:11:40;102496.13;;;-8.80;100.00
44140;BME280;29803;51.048;4.686;2022-12-18T08:14:10;102506.53;;;-8.73;100.00
44140;BME280;29803;51.048;4.686;2022-12-18T08:16:41;102507.38;;;-8.65;100.00
44140;BME280;29803;51.048;4.686;2022-12-18T08:19:11;102506.47;;;-8.51;100.00
44140;BME280;29803;51.048;4.686;2022-12-18T08:21:42;102498.63;;;-8.38;100.00
44140;BME280;29803;51.048;4.686;2022-12-18T08:24:12;102482.91;;;-8.21;100.00
44140;BME280;29803;51.048;4.686;2022-12-18T08:26:43;102481.97;;;-8.03;100.00
44140;BME280;29803;51.048;4.686;2022-12-18T08:29:13;102485.31;;;-7.84;100.00
44140;BME280;29803;51.048;4.686;2022-12-18T08:31:44;102486.91;;;-7.63;100.00
44140;BME280;29803;51.048;4.686;2022-12-18T08:34:14;102479.75;;;-7.38;100.00
44140;BME280;29803;51.048;4.686;2022-12-18T08:36:45;102480.44;;;-7.15;100.00
44140;BME280;29803;51.048;4.686;2022-12-18T08:39:15;102471.53;;;-6.91;100.00
44140;BME280;29803;51.048;4.686;2022-12-18T08:41:46;102469.59;;;-6.70;100.00
44140;BME280;29803;51.048;4.686;2022-12-18T08:44:36;102464.13;;;-6.47;100.00
44140;BME280;29803;51.048;4.686;2022-12-18T08:47:09;102463.06;;;-6.34;100.00
44140;BME280;29803;51.048;4.686;2022-12-18T08:49:40;102470.78;;;-6.25;100.00
44140;BME280;29803;51.048;4.686;2022-12-18T08:52:10;102466.38;;;-6.20;100.00
44140;BME280;29803;51.048;4.686;2022-12-18T08:54:41;102478.50;;;-6.16;100.00
44140;BME280;29803;51.048;4.686;2022-12-18T08:57:11;102473.25;;;-6.14;100.00
44140;BME280;29803;51.048;4.686;2022-12-18T08:59:42;102471.41;;;-6.06;100.00
44140;BME280;29803;51.048;4.686;2022-12-18T09:02:12;102471.38;;;-6.05;100.00
44140;BME280;29803;51.048;4.686;2022-12-18T09:04:43;102464.31;;;-5.98;100.00
44140;BME280;29803;51.048;4.686;2022-12-18T09:07:13;102464.19;;;-5.90;100.00
44140;BME280;29803;51.048;4.686;2022-12-18T09:09:44;102464.97;;;-5.82;100.00
44140;BME280;29803;51.048;4.686;2022-12-18T09:12:15;102466.56;;;-5.72;100.00
44140;BME280;29803;51.048;4.686;2022-12-18T09:14:45;102453.34;;;-5.64;100.00
44140;BME280;29803;51.048;4.686;2022-12-18T09:17:15;102441.03;;;-5.58;100.00
44140;BME280;29803;51.048;4.686;2022-12-18T09:19:46;102435.69;;;-5.50;100.00
44140;BME280;29803;51.048;4.686;2022-12-18T09:22:16;102440.84;;;-5.45;100.00
44140;BME280;29803;51.048;4.686;2022-12-18T09:24:48;102449.41;;;-5.37;100.00
44140;BME280;29803;51.048;4.686;2022-12-18T09:27:18;102451.09;;;-5.33;100.00
44140;BME280;29803;51.048;4.686;2022-12-18T09:29:49;102454.53;;;-5.30;100.00
44140;BME280;29803;51.048;4.686;2022-12-18T09:32:19;102454.50;;;-5.27;100.00
44140;BME280;29803;51.048;4.686;2022-12-18T09:34:50;102451.81;;;-5.24;100.00
44140;BME280;29803;51.048;4.686;2022-12-18T09:37:20;102451.75;;;-5.19;100.00
44140;BME280;29803;51.048;4.686;2022-12-18T09:39:51;102459.56;;;-5.17;100.00
44140;BME280;29803;51.048;4.686;2022-12-18T09:42:22;102464.78;;;-5.17;100.00
44140;BME280;29803;51.048;4.686;2022-12-18T09:44:53;102464.75;;;-5.14;100.00
44140;BME280;29803;51.048;4.686;2022-12-18T09:47:28;102454.22;;;-5.11;100.00
44140;BME280;29803;51.048;4.686;2022-12-18T09:50:28;102441.94;;;-5.08;100.00
44140;BME280;29803;51.048;4.686;2022-12-18T09:53:06;102455.06;;;-5.09;100.00
44140;BME280;29803;51.048;4.686;2022-12-18T09:55:42;102454.03;;;-5.02;100.00
44140;BME280;29803;51.048;4.686;2022-12-18T10:00:57;102444.34;;;-4.96;100.00
44140;BME280;29803;51.048;4.686;2022-12-18T10:03:28;102439.81;;;-4.87;100.00
44140;BME280;29803;51.048;4.686;2022-12-18T10:08:43;102439.59;;;-4.75;100.00
44140;BME280;29803;51.048;4.686;2022-12-18T10:19:44;102414.78;;;-4.56;100.00
44140;BME280;29803;51.048;4.686;2022-12-18T10:25:03;102403.22;;;-4.47;100.00
44140;BME280;29803;51.048;4.686;2022-12-18T10:27:35;102400.59;;;-4.47;100.00
44140;BME280;29803;51.048;4.686;2022-12-18T10:30:15;102393.50;;;-4.40;100.00
44140;BME280;29803;51.048;4.686;2022-12-18T10:32:46;102384.63;;;-4.35;100.00
44140;BME280;29803;51.048;4.686;2022-12-18T10:35:23;102381.91;;;-4.30;100.00
44140;BME280;29803;51.048;4.686;2022-12-18T10:43:35;102371.16;;;-4.18;100.00
44140;BME280;29803;51.048;4.686;2022-12-18T10:48:47;102356.09;;;-4.08;100.00
44140;BME280;29803;51.048;4.686;2022-12-18T10:51:36;102356.78;;;-4.02;100.00
44140;BME280;29803;51.048;4.686;2022-12-18T10:54:19;102356.66;;;-3.96;100.00
44140;BME280;29803;51.048;4.686;2022-12-18T10:56:51;102353.00;;;-3.88;100.00
44140;BME280;29803;51.048;4.686;2022-12-18T10:59:21;102359.81;;;-3.81;100.00
44140;BME280;29803;51.048;4.686;2022-12-18T11:01:57;102355.19;;;-3.72;100.00
44140;BME280;29803;51.048;4.686;2022-12-18T11:04:30;102347.13;;;-3.64;100.00
44140;BME280;29803;51.048;4.686;2022-12-18T11:07:06;102351.38;;;-3.58;100.00
44140;BME280;29803;51.048;4.686;2022-12-18T11:09:39;102347.78;;;-3.54;100.00
44140;BME280;29803;51.048;4.686;2022-12-18T11:14:47;102352.56;;;-3.38;100.00
44140;BME280;29803;51.048;4.686;2022-12-18T11:17:38;102363.81;;;-3.32;100.00
44140;BME280;29803;51.048;4.686;2022-12-18T11:20:30;102360.16;;;-3.27;100.00
44140;BME280;29803;51.048;4.686;2022-12-18T11:23:11;102353.81;;;-3.18;100.00
44140;BME280;29803;51.048;4.686;2022-12-18T11:25:57;102343.25;;;-3.15;100.00
44140;BME280;29803;51.048;4.686;2022-12-18T11:28:29;102350.03;;;-3.08;100.00
44140;BME280;29803;51.048;4.686;2022-12-18T11:31:24;102347.41;;;-3.08;100.00
44140;BME280;29803;51.048;4.686;2022-12-18T11:34:08;102345.50;;;-3.03;100.00
44140;BME280;29803;51.048;4.686;2022-12-18T11:36:46;102346.38;;;-3.02;100.00
44140;BME280;29803;51.048;4.686;2022-12-18T11:39:36;102343.66;;;-2.99;100.00
44140;BME280;29803;51.048;4.686;2022-12-18T11:42:34;102340.00;;;-2.94;100.00
44140;BME280;29803;51.048;4.686;2022-12-18T11:48:04;102329.31;;;-2.88;100.00
44140;BME280;29803;51.048;4.686;2022-12-18T11:51:05;102334.56;;;-2.88;100.00
44140;BME280;29803;51.048;4.686;2022-12-18T11:53:41;102333.59;;;-2.83;100.00
44140;BME280;29803;51.048;4.686;2022-12-18T12:21:42;102295.19;;;-2.58;100.00
44140;BME280;29803;51.048;4.686;2022-12-18T12:24:57;102295.81;;;-2.50;100.00
44140;BME280;29803;51.048;4.686;2022-12-18T12:30:10;102287.66;;;-2.41;100.00
44140;BME280;29803;51.048;4.686;2022-12-18T12:33:08;102283.91;;;-2.33;100.00
44140;BME280;29803;51.048;4.686;2022-12-18T12:38:31;102280.16;;;-2.26;100.00
44140;BME280;29803;51.048;4.686;2022-12-18T12:41:06;102274.75;;;-2.22;100.00
44140;BME280;29803;51.048;4.686;2022-12-18T12:44:03;102273.69;;;-2.16;100.00
44140;BME280;29803;51.048;4.686;2022-12-18T12:46:39;102270.06;;;-2.12;100.00
44140;BME280;29803;51.048;4.686;2022-12-18T12:49:15;102265.63;;;-2.10;100.00
44140;BME280;29803;51.048;4.686;2022-12-18T12:51:56;102265.50;;;-2.07;100.00
44140;BME280;29803;51.048;4.686;2022-12-18T12:54:28;102268.06;;;-2.04;100.00
44140;BME280;29803;51.048;4.686;2022-12-18T12:57:08;102274.88;;;-1.98;100.00
44140;BME280;29803;51.048;4.686;2022-12-18T13:05:54;102259.66;;;-1.89;100.00
44140;BME280;29803;51.048;4.686;2022-12-18T13:08:30;102252.56;;;-1.87;100.00
44140;BME280;29803;51.048;4.686;2022-12-18T13:11:01;102256.09;;;-1.88;100.00
44140;BME280;29803;51.048;4.686;2022-12-18T13:13:53;102251.66;;;-1.86;100.00
44140;BME280;29803;51.048;4.686;2022-12-18T13:16:25;102248.13;;;-1.85;100.00
44140;BME280;29803;51.048;4.686;2022-12-18T13:18:57;102248.00;;;-1.82;100.00
44140;BME280;29803;51.048;4.686;2022-12-18T13:21:31;102243.59;;;-1.81;100.00
44140;BME280;29803;51.048;4.686;2022-12-18T13:24:27;102234.75;;;-1.78;100.00
44140;BME280;29803;51.048;4.686;2022-12-18T13:38:32;102221.75;;;-1.83;100.00
44140;BME280;29803;51.048;4.686;2022-12-18T13:44:07;102219.34;;;-1.89;100.00
44140;BME280;29803;51.048;4.686;2022-12-18T13:46:45;102205.34;;;-1.91;100.00
44140;BME280;29803;51.048;4.686;2022-12-18T13:49:39;102207.81;;;-1.87;100.00
44140;BME280;29803;51.048;4.686;2022-12-18T13:52:20;102219.34;;;-1.89;100.00
44140;BME280;29803;51.048;4.686;2022-12-18T13:54:53;102207.97;;;-1.90;100.00
44140;BME280;29803;51.048;4.686;2022-12-18T13:57:35;102216.69;;;-1.89;100.00
44140;BME280;29803;51.048;4.686;2022-12-18T14:02:57;102220.09;;;-1.86;100.00
44140;BME280;29803;51.048;4.686;2022-12-18T14:05:30;102214.84;;;-1.86;100.00
44140;BME280;29803;51.048;4.686;2022-12-18T14:08:05;102214.72;;;-1.83;100.00
44140;BME280;29803;51.048;4.686;2022-12-18T14:10:40;102219.06;;;-1.82;100.00
44140;BME280;29803;51.048;4.686;2022-12-18T14:13:19;102216.41;;;-1.82;100.00
44140;BME280;29803;51.048;4.686;2022-12-18T14:15:51;102219.88;;;-1.79;100.00
44140;BME280;29803;51.048;4.686;2022-12-18T14:21:23;102229.47;;;-1.78;100.00
44140;BME280;29803;51.048;4.686;2022-12-18T14:24:19;102225.00;;;-1.76;100.00
44140;BME280;29803;51.048;4.686;2022-12-18T14:26:50;102226.78;;;-1.77;100.00
44140;BME280;29803;51.048;4.686;2022-12-18T14:29:27;102224.13;;;-1.75;100.00
44140;BME280;29803;51.048;4.686;2022-12-18T14:32:12;102222.38;;;-1.76;100.00
44140;BME280;29803;51.048;4.686;2022-12-18T14:34:51;102220.72;;;-1.79;100.00
44140;BME280;29803;51.048;4.686;2022-12-18T14:37:26;102210.28;;;-1.80;100.00
44140;BME280;29803;51.048;4.686;2022-12-18T14:40:02;102209.44;;;-1.83;100.00
44140;BME280;29803;51.048;4.686;2022-12-18T14:42:34;102213.06;;;-1.85;100.00
44140;BME280;29803;51.048;4.686;2022-12-18T14:45:36;102211.31;;;-1.86;100.00
44140;BME280;29803;51.048;4.686;2022-12-18T14:51:03;102200.91;;;-1.89;100.00
44140;BME280;29803;51.048;4.686;2022-12-18T14:53:38;102198.34;;;-1.91;100.00
44140;BME280;29803;51.048;4.686;2022-12-18T14:56:15;102194.91;;;-1.93;100.00
44140;BME280;29803;51.048;4.686;2022-12-18T14:59:01;102189.69;;;-1.94;100.00
44140;BME280;29803;51.048;4.686;2022-12-18T15:01:37;102183.63;;;-1.96;100.00
44140;BME280;29803;51.048;4.686;2022-12-18T15:04:28;102175.78;;;-1.98;100.00
44140;BME280;29803;51.048;4.686;2022-12-18T15:09:33;102179.34;;;-1.99;100.00